Share

Warsaw, MO (65355)

5:40 AM CDT on April 24, 2014 (GMT -0500)
cole camp Lincoln (KMOCOLEC2) Elev 905 ft | 38.40 °N, 93.20 °W | Change Station

Current weather conditions updated 9 minutes ago

Haze
Haze
62.4 °F
Feels Like 62.4 °F
N
0.0
Wind Variable Wind from ENE
Gusts 0.0 mph
Sunrise 6:25 AM
Sunset 7:58 PM
Moon Waning Crescent

Today is forecast to be Much Cooler than yesterday. Thunderstorms.

Pressure 29.71 in
Visibility 4.0 miles
Clouds Scattered Clouds 2000 ft
Scattered Clouds 3400 ft
Mostly Cloudy 4600 ft
Dew Point 41 °F
Humidity 46%
Rainfall 0.00 in
Snow Depth Not available.
UV 0 out of 16
Pollen 10.80 out of 12
Air Quality Not available.
Flu Activity Sporadic
METAR KGLY 241035Z AUTO 15010KT 4SM HZ SCT020 SCT034 BKN046 16/10 A2971 RMK AO2

More Conditions Fewer Conditions

Pressure 29.71 in
Visibility 4.0 miles
Clouds Scattered Clouds 2000 ft
Scattered Clouds 3400 ft
Mostly Cloudy 4600 ft
Dew Point 41 °F
Humidity 46%
Rainfall 0.00 in
Snow Depth Not available.
UV 0 out of 16
Pollen 10.80 out of 12
Air Quality Not available.
Flu Activity Sporadic
METAR KGLY 241035Z AUTO 15010KT 4SM HZ SCT020 SCT034 BKN046 16/10 A2971 RMK AO2

More Conditions Fewer Conditions

10-Day Weather Forecast

Almanac

Astronomy

Apr. 24, 2014 Rise Set
Actual Time 6:25 AM CDT 7:58 PM CDT
Civil Twilight 5:57 AM CDT 8:26 PM CDT
Nautical Twilight 5:24 AM CDT 8:59 PM CDT
Astronomical Twilight 4:48 AM CDT 9:35 PM CDT
Moon 3:32 AM CDT 3:18 PM CDT
Length of Visible Light 14h 28m
Length of Day
13h 32m
Tomorrow will be 2m 13s longer.
Waning Crescent, 27% of the Moon is Illuminated
Today
Waning Crescent
Apr 29
New
May 6
First Quarter
May 14
Full
May 21
Last Quarter

Today's Extremes

State Highs State Lows

Community

  • Stacked
    Stacked
  • clouds approaching Red Sox Nation
    clouds approaching Red Sox Nation
  • Balance
    Balance
  • Nestled In
    Nestled In
  • Stunning Sunrise
    Stunning Sunrise

WunderPhotos

Upload Photos

1,704,584 photos uploaded!

WunderBlogs® & News

Nearby

Snow Depth

Station Depth Elevation
No new snow has been reported.

Coastal Water Temperatures

Place Temperature
No Stations Reporting

Earthquake Activity

City Distance Mag. Time & Date
No recent earthquake activity has been reported nearby.
Minimum magnitude displayed is 2.5.

Nearby Weather Stations

Station Location Temp. Dew Point Humidity Wind Precip. Elev Updated Type
cole camp Lincoln, Cole Camp, MO 62.4 °F 41 °F 46% ENE  at  0.0 mph 0.00 in / hr 905 ft 5:30 AM CDT Normal
Windsor NW, Windsor, MO 61.9 °F 44 °F 51% SSW  at  6.0 mph 0.00 in / hr 886 ft 5:39 AM CDT Rapid Fire
RAWS CLINTON MO, Clinton, MO 65 °F 45 °F 49% SSE  at  6 mph 0.00 in / hr 759 ft 4:13 AM CDT MADIS
Gordon's Orchard, Collins, MO 63.5 °F 48 °F 56% South  at  13.0 mph - / hr 925 ft 5:33 AM CDT Normal

Show More Stations Show Fewer Stations

What do you think?

We're not finished. Please let us know what you like, what you don't like, and what you are still missing.